sensor_id;sensor_type;location;lat;lon;timestamp;temperature;humidity
39067;DHT22;24821;51.988;6.020;2024-03-23T00:54:31;9.50;99.90
39067;DHT22;24821;51.988;6.020;2024-03-23T00:56:57;9.60;99.90
39067;DHT22;24821;51.988;6.020;2024-03-23T00:59:22;9.50;99.90
39067;DHT22;24821;51.988;6.020;2024-03-23T01:01:52;9.50;99.90
39067;DHT22;24821;51.988;6.020;2024-03-23T01:04:18;9.50;99.90
39067;DHT22;24821;51.988;6.020;2024-03-23T01:06:43;9.40;99.90
39067;DHT22;24821;51.988;6.020;2024-03-23T01:09:09;9.40;99.90
39067;DHT22;24821;51.988;6.020;2024-03-23T01:11:36;9.40;99.90
39067;DHT22;24821;51.988;6.020;2024-03-23T01:14:01;9.30;99.90
39067;DHT22;24821;51.988;6.020;2024-03-23T01:16:27;9.30;99.90
39067;DHT22;24821;51.988;6.020;2024-03-23T01:18:52;9.30;99.90
39067;DHT22;24821;51.988;6.020;2024-03-23T01:21:18;9.30;99.90
39067;DHT22;24821;51.988;6.020;2024-03-23T01:23:43;9.30;99.90
39067;DHT22;24821;51.988;6.020;2024-03-23T01:26:09;9.30;99.90
39067;DHT22;24821;51.988;6.020;2024-03-23T01:28:34;9.30;99.90
39067;DHT22;24821;51.988;6.020;2024-03-23T01:31:00;9.20;99.90
39067;DHT22;24821;51.988;6.020;2024-03-23T01:33:25;9.20;99.90
39067;DHT22;24821;51.988;6.020;2024-03-23T01:35:51;9.20;99.90
39067;DHT22;24821;51.988;6.020;2024-03-23T01:38:16;9.20;99.90
39067;DHT22;24821;51.988;6.020;2024-03-23T01:40:42;9.20;99.90
39067;DHT22;24821;51.988;6.020;2024-03-23T01:43:08;9.10;99.90
39067;DHT22;24821;51.988;6.020;2024-03-23T01:45:33;9.10;99.90
39067;DHT22;24821;51.988;6.020;2024-03-23T01:47:59;9.10;99.90
39067;DHT22;24821;51.988;6.020;2024-03-23T01:50:25;9.10;99.90
39067;DHT22;24821;51.988;6.020;2024-03-23T01:52:51;9.10;99.90
39067;DHT22;24821;51.988;6.020;2024-03-23T01:55:16;9.00;99.90
39067;DHT22;24821;51.988;6.020;2024-03-23T01:57:42;9.10;99.90
39067;DHT22;24821;51.988;6.020;2024-03-23T02:00:07;9.10;99.90
39067;DHT22;24821;51.988;6.020;2024-03-23T02:02:33;9.00;99.90
39067;DHT22;24821;51.988;6.020;2024-03-23T02:04:59;9.00;99.90
39067;DHT22;24821;51.988;6.020;2024-03-23T02:07:24;9.00;99.90
39067;DHT22;24821;51.988;6.020;2024-03-23T02:09:53;9.00;99.90
39067;DHT22;24821;51.988;6.020;2024-03-23T02:12:18;9.00;99.90
39067;DHT22;24821;51.988;6.020;2024-03-23T02:14:44;9.00;99.90
39067;DHT22;24821;51.988;6.020;2024-03-23T02:17:10;9.00;99.90
39067;DHT22;24821;51.988;6.020;2024-03-23T02:19:35;9.00;99.90
39067;DHT22;24821;51.988;6.020;2024-03-23T02:22:00;9.00;99.90
39067;DHT22;24821;51.988;6.020;2024-03-23T02:24:26;9.00;99.90
39067;DHT22;24821;51.988;6.020;2024-03-23T02:26:51;9.00;99.90
39067;DHT22;24821;51.988;6.020;2024-03-23T02:29:17;9.00;99.90
39067;DHT22;24821;51.988;6.020;2024-03-23T02:31:42;8.90;99.90
39067;DHT22;24821;51.988;6.020;2024-03-23T02:34:08;9.00;99.90
39067;DHT22;24821;51.988;6.020;2024-03-23T02:36:33;8.90;99.90
39067;DHT22;24821;51.988;6.020;2024-03-23T02:38:59;9.00;99.90
39067;DHT22;24821;51.988;6.020;2024-03-23T02:41:25;8.90;99.90
39067;DHT22;24821;51.988;6.020;2024-03-23T02:43:50;8.90;99.90
39067;DHT22;24821;51.988;6.020;2024-03-23T02:46:16;8.90;99.90
39067;DHT22;24821;51.988;6.020;2024-03-23T02:48:41;8.90;99.90
39067;DHT22;24821;51.988;6.020;2024-03-23T02:51:07;8.90;99.90
39067;DHT22;24821;51.988;6.020;2024-03-23T02:53:32;8.80;99.90
39067;DHT22;24821;51.988;6.020;2024-03-23T02:55:58;8.80;99.90
39067;DHT22;24821;51.988;6.020;2024-03-23T02:58:23;8.70;99.90
39067;DHT22;24821;51.988;6.020;2024-03-23T03:00:49;8.70;99.90
39067;DHT22;24821;51.988;6.020;2024-03-23T03:03:14;8.70;99.90
39067;DHT22;24821;51.988;6.020;2024-03-23T03:05:40;8.60;99.90
39067;DHT22;24821;51.988;6.020;2024-03-23T03:08:05;8.50;99.90
39067;DHT22;24821;51.988;6.020;2024-03-23T03:10:31;8.50;99.90
39067;DHT22;24821;51.988;6.020;2024-03-23T03:13:00;8.40;99.90
39067;DHT22;24821;51.988;6.020;2024-03-23T03:15:25;8.40;99.90
39067;DHT22;24821;51.988;6.020;2024-03-23T03:17:51;8.40;99.90
39067;DHT22;24821;51.988;6.020;2024-03-23T03:20:16;8.40;99.90
39067;DHT22;24821;51.988;6.020;2024-03-23T03:22:43;8.40;99.90
39067;DHT22;24821;51.988;6.020;2024-03-23T03:25:09;8.50;99.90
39067;DHT22;24821;51.988;6.020;2024-03-23T03:27:34;8.50;99.90
39067;DHT22;24821;51.988;6.020;2024-03-23T03:30:00;8.40;99.90
39067;DHT22;24821;51.988;6.020;2024-03-23T03:32:30;8.40;99.90
39067;DHT22;24821;51.988;6.020;2024-03-23T03:34:55;8.30;99.90
39067;DHT22;24821;51.988;6.020;2024-03-23T03:37:21;8.30;99.90
39067;DHT22;24821;51.988;6.020;2024-03-23T03:39:46;8.30;99.90
39067;DHT22;24821;51.988;6.020;2024-03-23T03:42:12;8.20;99.90
39067;DHT22;24821;51.988;6.020;2024-03-23T03:44:37;8.20;99.90
39067;DHT22;24821;51.988;6.020;2024-03-23T03:47:03;8.10;99.90
39067;DHT22;24821;51.988;6.020;2024-03-23T03:49:28;8.10;99.90
39067;DHT22;24821;51.988;6.020;2024-03-23T03:51:54;8.10;99.90
39067;DHT22;24821;51.988;6.020;2024-03-23T03:54:19;8.10;99.90
39067;DHT22;24821;51.988;6.020;2024-03-23T03:56:45;8.10;99.90
39067;DHT22;24821;51.988;6.020;2024-03-23T03:59:10;8.00;99.90
39067;DHT22;24821;51.988;6.020;2024-03-23T04:01:35;8.00;99.90
39067;DHT22;24821;51.988;6.020;2024-03-23T04:04:01;8.00;99.90
39067;DHT22;24821;51.988;6.020;2024-03-23T04:06:26;8.00;99.90
39067;DHT22;24821;51.988;6.020;2024-03-23T04:08:52;7.90;99.90
39067;DHT22;24821;51.988;6.020;2024-03-23T04:11:17;7.90;99.90
39067;DHT22;24821;51.988;6.020;2024-03-23T04:13:43;7.90;99.90
39067;DHT22;24821;51.988;6.020;2024-03-23T04:16:08;7.80;99.90
39067;DHT22;24821;51.988;6.020;2024-03-23T04:18:34;7.80;99.90
39067;DHT22;24821;51.988;6.020;2024-03-23T04:21:00;7.80;99.90
39067;DHT22;24821;51.988;6.020;2024-03-23T04:23:25;7.80;99.90
39067;DHT22;24821;51.988;6.020;2024-03-23T04:25:51;7.70;99.90
39067;DHT22;24821;51.988;6.020;2024-03-23T04:28:18;7.70;99.90
39067;DHT22;24821;51.988;6.020;2024-03-23T04:30:44;7.70;99.90
39067;DHT22;24821;51.988;6.020;2024-03-23T04:33:09;7.70;99.90
39067;DHT22;24821;51.988;6.020;2024-03-23T04:35:35;7.70;99.90
39067;DHT22;24821;51.988;6.020;2024-03-23T04:38:01;7.60;99.90
39067;DHT22;24821;51.988;6.020;2024-03-23T04:40:26;7.60;99.90
39067;DHT22;24821;51.988;6.020;2024-03-23T04:42:52;7.60;99.90
39067;DHT22;24821;51.988;6.020;2024-03-23T04:45:17;7.60;99.90
39067;DHT22;24821;51.988;6.020;2024-03-23T04:47:43;7.50;99.90
39067;DHT22;24821;51.988;6.020;2024-03-23T04:50:09;7.50;99.90
39067;DHT22;24821;51.988;6.020;2024-03-23T04:52:36;7.50;99.90
39067;DHT22;24821;51.988;6.020;2024-03-23T04:55:01;7.50;99.90
39067;DHT22;24821;51.988;6.020;2024-03-23T04:57:27;7.50;99.90
39067;DHT22;24821;51.988;6.020;2024-03-23T04:59:52;7.40;99.90
39067;DHT22;24821;51.988;6.020;2024-03-23T05:02:17;7.40;99.90
39067;DHT22;24821;51.988;6.020;2024-03-23T05:04:43;7.40;99.90
39067;DHT22;24821;51.988;6.020;2024-03-23T05:07:08;7.40;99.90
39067;DHT22;24821;51.988;6.020;2024-03-23T05:09:34;7.40;99.90
39067;DHT22;24821;51.988;6.020;2024-03-23T05:12:00;7.30;99.90
39067;DHT22;24821;51.988;6.020;2024-03-23T05:14:25;7.30;99.90
39067;DHT22;24821;51.988;6.020;2024-03-23T05:16:51;7.30;99.90
39067;DHT22;24821;51.988;6.020;2024-03-23T05:19:16;7.30;99.90
39067;DHT22;24821;51.988;6.020;2024-03-23T05:21:42;7.20;99.90
39067;DHT22;24821;51.988;6.020;2024-03-23T05:24:07;7.20;99.90
39067;DHT22;24821;51.988;6.020;2024-03-23T05:26:34;7.20;99.90
39067;DHT22;24821;51.988;6.020;2024-03-23T05:29:01;7.20;99.90
39067;DHT22;24821;51.988;6.020;2024-03-23T05:31:27;7.20;99.90
39067;DHT22;24821;51.988;6.020;2024-03-23T05:33:52;7.20;99.90
39067;DHT22;24821;51.988;6.020;2024-03-23T05:36:18;7.20;99.90
39067;DHT22;24821;51.988;6.020;2024-03-23T05:38:43;7.20;99.90
39067;DHT22;24821;51.988;6.020;2024-03-23T05:41:09;7.20;99.90
39067;DHT22;24821;51.988;6.020;2024-03-23T05:43:35;7.20;99.90
39067;DHT22;24821;51.988;6.020;2024-03-23T05:46:00;7.30;99.90
39067;DHT22;24821;51.988;6.020;2024-03-23T05:48:30;7.30;99.90
39067;DHT22;24821;51.988;6.020;2024-03-23T05:50:56;7.30;99.90
39067;DHT22;24821;51.988;6.020;2024-03-23T05:53:21;7.20;99.90
39067;DHT22;24821;51.988;6.020;2024-03-23T05:55:47;7.20;99.90
39067;DHT22;24821;51.988;6.020;2024-03-23T05:58:16;7.20;99.90
39067;DHT22;24821;51.988;6.020;2024-03-23T06:00:42;7.20;99.90
39067;DHT22;24821;51.988;6.020;2024-03-23T06:03:07;7.10;99.90
39067;DHT22;24821;51.988;6.020;2024-03-23T06:05:33;7.10;99.90
39067;DHT22;24821;51.988;6.020;2024-03-23T06:07:58;7.10;99.90
39067;DHT22;24821;51.988;6.020;2024-03-23T06:10:24;7.10;99.90
39067;DHT22;24821;51.988;6.020;2024-03-23T06:12:49;7.10;99.90
39067;DHT22;24821;51.988;6.020;2024-03-23T06:15:20;7.10;99.90
39067;DHT22;24821;51.988;6.020;2024-03-23T06:17:45;7.10;99.90
39067;DHT22;24821;51.988;6.020;2024-03-23T06:20:12;7.10;99.90
39067;DHT22;24821;51.988;6.020;2024-03-23T06:22:38;7.10;99.90
39067;DHT22;24821;51.988;6.020;2024-03-23T06:25:03;7.10;99.90
39067;DHT22;24821;51.988;6.020;2024-03-23T06:27:29;7.10;99.90
39067;DHT22;24821;51.988;6.020;2024-03-23T06:29:54;7.10;99.90
39067;DHT22;24821;51.988;6.020;2024-03-23T06:32:20;7.20;99.90
39067;DHT22;24821;51.988;6.020;2024-03-23T06:34:45;7.10;99.90
39067;DHT22;24821;51.988;6.020;2024-03-23T06:37:11;7.20;99.90
39067;DHT22;24821;51.988;6.020;2024-03-23T06:39:37;7.20;99.90
39067;DHT22;24821;51.988;6.020;2024-03-23T06:42:02;7.20;99.90
39067;DHT22;24821;51.988;6.020;2024-03-23T06:44:28;7.20;99.90
39067;DHT22;24821;51.988;6.020;2024-03-23T06:46:54;7.30;99.90
39067;DHT22;24821;51.988;6.020;2024-03-23T06:49:19;7.20;99.90
39067;DHT22;24821;51.988;6.020;2024-03-23T06:51:45;7.30;99.90
39067;DHT22;24821;51.988;6.020;2024-03-23T06:54:11;7.30;99.90
39067;DHT22;24821;51.988;6.020;2024-03-23T06:56:36;7.30;99.90
39067;DHT22;24821;51.988;6.020;2024-03-23T06:59:02;7.40;99.90
39067;DHT22;24821;51.988;6.020;2024-03-23T07:01:27;7.50;99.90
39067;DHT22;24821;51.988;6.020;2024-03-23T07:03:54;7.70;99.90
39067;DHT22;24821;51.988;6.020;2024-03-23T07:06:19;7.80;99.90
39067;DHT22;24821;51.988;6.020;2024-03-23T07:08:45;7.80;99.90
39067;DHT22;24821;51.988;6.020;2024-03-23T07:11:10;7.80;99.90
39067;DHT22;24821;51.988;6.020;2024-03-23T07:13:36;7.80;99.90
39067;DHT22;24821;51.988;6.020;2024-03-23T07:16:01;7.80;99.90
39067;DHT22;24821;51.988;6.020;2024-03-23T07:18:27;7.90;99.90
39067;DHT22;24821;51.988;6.020;2024-03-23T07:20:53;8.00;99.90
39067;DHT22;24821;51.988;6.020;2024-03-23T07:23:19;8.10;99.90
39067;DHT22;24821;51.988;6.020;2024-03-23T07:25:44;8.10;99.90
39067;DHT22;24821;51.988;6.020;2024-03-23T07:28:10;8.20;99.90
39067;DHT22;24821;51.988;6.020;2024-03-23T07:30:35;8.30;99.90
39067;DHT22;24821;51.988;6.020;2024-03-23T07:33:01;8.30;99.90
39067;DHT22;24821;51.988;6.020;2024-03-23T07:35:26;8.40;99.90
39067;DHT22;24821;51.988;6.020;2024-03-23T07:37:52;8.40;99.90
39067;DHT22;24821;51.988;6.020;2024-03-23T07:40:17;8.40;99.90
39067;DHT22;24821;51.988;6.020;2024-03-23T07:42:43;8.50;99.90
39067;DHT22;24821;51.988;6.020;2024-03-23T07:45:08;8.60;99.90
39067;DHT22;24821;51.988;6.020;2024-03-23T07:47:34;8.70;99.90
39067;DHT22;24821;51.988;6.020;2024-03-23T07:50:00;8.80;99.90
39067;DHT22;24821;51.988;6.020;2024-03-23T07:52:28;9.00;99.90
39067;DHT22;24821;51.988;6.020;2024-03-23T07:54:53;9.20;99.90
39067;DHT22;24821;51.988;6.020;2024-03-23T07:57:19;9.50;99.90
39067;DHT22;24821;51.988;6.020;2024-03-23T07:59:44;9.70;99.90
39067;DHT22;24821;51.988;6.020;2024-03-23T08:02:10;9.80;99.90
39067;DHT22;24821;51.988;6.020;2024-03-23T08:04:36;10.00;99.90
39067;DHT22;24821;51.988;6.020;2024-03-23T08:07:02;10.10;99.90
39067;DHT22;24821;51.988;6.020;2024-03-23T08:09:27;10.30;99.90
39067;DHT22;24821;51.988;6.020;2024-03-23T08:11:52;10.40;99.90
39067;DHT22;24821;51.988;6.020;2024-03-23T08:14:18;10.70;99.90
39067;DHT22;24821;51.988;6.020;2024-03-23T08:16:44;10.90;99.90
39067;DHT22;24821;51.988;6.020;2024-03-23T08:19:14;11.10;99.90
39067;DHT22;24821;51.988;6.020;2024-03-23T08:21:39;11.20;99.90
39067;DHT22;24821;51.988;6.020;2024-03-23T08:24:05;11.00;99.90
39067;DHT22;24821;51.988;6.020;2024-03-23T08:26:30;11.10;99.90
39067;DHT22;24821;51.988;6.020;2024-03-23T08:28:56;11.20;99.90
39067;DHT22;24821;51.988;6.020;2024-03-23T08:31:22;11.20;99.90
39067;DHT22;24821;51.988;6.020;2024-03-23T08:33:47;11.00;99.90
39067;DHT22;24821;51.988;6.020;2024-03-23T08:36:13;10.90;99.90
39067;DHT22;24821;51.988;6.020;2024-03-23T08:38:39;10.70;99.90
39067;DHT22;24821;51.988;6.020;2024-03-23T08:41:05;10.60;99.90
39067;DHT22;24821;51.988;6.020;2024-03-23T08:43:31;10.60;99.90
39067;DHT22;24821;51.988;6.020;2024-03-23T08:46:10;10.60;99.90
39067;DHT22;24821;51.988;6.020;2024-03-23T08:48:37;10.80;99.90
39067;DHT22;24821;51.988;6.020;2024-03-23T08:51:03;10.80;99.90
39067;DHT22;24821;51.988;6.020;2024-03-23T08:53:29;10.70;99.90
39067;DHT22;24821;51.988;6.020;2024-03-23T08:55:55;10.60;99.90
39067;DHT22;24821;51.988;6.020;2024-03-23T08:58:21;10.50;99.90
39067;DHT22;24821;51.988;6.020;2024-03-23T09:00:47;10.40;99.90
39067;DHT22;24821;51.988;6.020;2024-03-23T09:03:12;10.50;99.90
39067;DHT22;24821;51.988;6.020;2024-03-23T09:05:41;10.70;99.90
39067;DHT22;24821;51.988;6.020;2024-03-23T09:08:06;10.70;99.90
39067;DHT22;24821;51.988;6.020;2024-03-23T09:10:34;10.60;99.90
39067;DHT22;24821;51.988;6.020;2024-03-23T09:13:00;10.50;99.90
39067;DHT22;24821;51.988;6.020;2024-03-23T09:15:25;10.20;99.90
39067;DHT22;24821;51.988;6.020;2024-03-23T09:17:51;10.00;99.90
39067;DHT22;24821;51.988;6.020;2024-03-23T09:20:16;9.80;99.90
39067;DHT22;24821;51.988;6.020;2024-03-23T09:22:42;9.60;99.90
39067;DHT22;24821;51.988;6.020;2024-03-23T09:25:07;9.40;99.90
39067;DHT22;24821;51.988;6.020;2024-03-23T09:27:33;9.20;99.90
39067;DHT22;24821;51.988;6.020;2024-03-23T09:29:58;9.10;99.90
39067;DHT22;24821;51.988;6.020;2024-03-23T09:32:24;9.00;99.90
39067;DHT22;24821;51.988;6.020;2024-03-23T09:34:49;8.90;99.90
39067;DHT22;24821;51.988;6.020;2024-03-23T09:37:15;8.80;99.90
39067;DHT22;24821;51.988;6.020;2024-03-23T09:39:40;8.80;99.90
39067;DHT22;24821;51.988;6.020;2024-03-23T09:42:07;8.80;99.90
39067;DHT22;24821;51.988;6.020;2024-03-23T09:44:32;9.10;99.90
39067;DHT22;24821;51.988;6.020;2024-03-23T09:46:58;9.20;99.90
39067;DHT22;24821;51.988;6.020;2024-03-23T09:49:23;9.40;99.90
39067;DHT22;24821;51.988;6.020;2024-03-23T09:51:50;9.50;99.90
39067;DHT22;24821;51.988;6.020;2024-03-23T09:54:16;9.60;99.90
39067;DHT22;24821;51.988;6.020;2024-03-23T09:56:41;9.70;99.90
39067;DHT22;24821;51.988;6.020;2024-03-23T09:59:07;9.80;99.90
39067;DHT22;24821;51.988;6.020;2024-03-23T10:01:32;9.90;99.90
39067;DHT22;24821;51.988;6.020;2024-03-23T10:03:58;10.00;99.90
39067;DHT22;24821;51.988;6.020;2024-03-23T10:06:23;10.20;99.90
39067;DHT22;24821;51.988;6.020;2024-03-23T10:08:52;10.40;99.90
39067;DHT22;24821;51.988;6.020;2024-03-23T10:11:18;10.50;99.90
39067;DHT22;24821;51.988;6.020;2024-03-23T10:13:44;10.70;99.90
39067;DHT22;24821;51.988;6.020;2024-03-23T10:16:11;10.80;99.90
39067;DHT22;24821;51.988;6.020;2024-03-23T10:18:38;10.80;99.90
39067;DHT22;24821;51.988;6.020;2024-03-23T10:21:07;10.60;99.90
39067;DHT22;24821;51.988;6.020;2024-03-23T10:23:37;10.30;99.90
39067;DHT22;24821;51.988;6.020;2024-03-23T10:28:50;9.70;99.90
39067;DHT22;24821;51.988;6.020;2024-03-23T10:31:16;9.60;99.90
39067;DHT22;24821;51.988;6.020;2024-03-23T10:33:48;9.60;99.90
39067;DHT22;24821;51.988;6.020;2024-03-23T10:36:14;9.80;99.90
39067;DHT22;24821;51.988;6.020;2024-03-23T10:38:40;10.00;99.90
39067;DHT22;24821;51.988;6.020;2024-03-23T10:41:06;10.10;99.90
39067;DHT22;24821;51.988;6.020;2024-03-23T10:43:32;10.10;99.90
39067;DHT22;24821;51.988;6.020;2024-03-23T10:45:58;9.90;99.90
39067;DHT22;24821;51.988;6.020;2024-03-23T10:48:23;9.60;99.90
39067;DHT22;24821;51.988;6.020;2024-03-23T10:50:49;9.40;99.90
39067;DHT22;24821;51.988;6.020;2024-03-23T10:53:14;9.20;99.90
39067;DHT22;24821;51.988;6.020;2024-03-23T10:55:41;9.10;99.90
39067;DHT22;24821;51.988;6.020;2024-03-23T10:58:09;9.20;99.90
39067;DHT22;24821;51.988;6.020;2024-03-23T11:00:37;9.30;99.90
39067;DHT22;24821;51.988;6.020;2024-03-23T11:03:29;9.40;99.90
39067;DHT22;24821;51.988;6.020;2024-03-23T11:05:54;9.50;99.90
39067;DHT22;24821;51.988;6.020;2024-03-23T11:08:36;9.80;99.90
39067;DHT22;24821;51.988;6.020;2024-03-23T11:11:12;10.00;99.90
39067;DHT22;24821;51.988;6.020;2024-03-23T11:13:38;10.30;99.90
39067;DHT22;24821;51.988;6.020;2024-03-23T11:16:12;10.50;99.90
39067;DHT22;24821;51.988;6.020;2024-03-23T11:18:38;10.80;99.90
39067;DHT22;24821;51.988;6.020;2024-03-23T11:21:03;10.90;99.90
39067;DHT22;24821;51.988;6.020;2024-03-23T11:23:29;11.00;99.90
39067;DHT22;24821;51.988;6.020;2024-03-23T11:25:54;11.10;99.90
39067;DHT22;24821;51.988;6.020;2024-03-23T11:28:20;11.20;99.90
39067;DHT22;24821;51.988;6.020;2024-03-23T11:30:47;11.30;99.90
39067;DHT22;24821;51.988;6.020;2024-03-23T11:33:12;11.40;99.90
39067;DHT22;24821;51.988;6.020;2024-03-23T11:35:38;11.40;99.20
39067;DHT22;24821;51.988;6.020;2024-03-23T11:38:09;11.30;99.20
39067;DHT22;24821;51.988;6.020;2024-03-23T11:40:36;11.30;99.70
39067;DHT22;24821;51.988;6.020;2024-03-23T11:43:02;11.10;99.90
39067;DHT22;24821;51.988;6.020;2024-03-23T11:45:28;11.00;99.90
39067;DHT22;24821;51.988;6.020;2024-03-23T11:50:41;10.80;99.90
39067;DHT22;24821;51.988;6.020;2024-03-23T11:53:12;10.70;99.90
39067;DHT22;24821;51.988;6.020;2024-03-23T11:55:59;10.60;99.90
39067;DHT22;24821;51.988;6.020;2024-03-23T11:58:25;10.60;99.90
39067;DHT22;24821;51.988;6.020;2024-03-23T12:00:51;10.70;99.90
39067;DHT22;24821;51.988;6.020;2024-03-23T12:03:17;10.80;99.90
39067;DHT22;24821;51.988;6.020;2024-03-23T12:05:47;10.90;99.90
39067;DHT22;24821;51.988;6.020;2024-03-23T12:10:51;11.10;99.90
39067;DHT22;24821;51.988;6.020;2024-03-23T12:13:23;11.10;99.90
39067;DHT22;24821;51.988;6.020;2024-03-23T12:15:50;11.30;99.90
39067;DHT22;24821;51.988;6.020;2024-03-23T12:18:15;11.40;99.90
39067;DHT22;24821;51.988;6.020;2024-03-23T12:20:41;11.40;99.90
39067;DHT22;24821;51.988;6.020;2024-03-23T12:23:12;11.40;99.90
39067;DHT22;24821;51.988;6.020;2024-03-23T12:25:38;11.20;99.90
39067;DHT22;24821;51.988;6.020;2024-03-23T12:28:04;11.10;99.90
39067;DHT22;24821;51.988;6.020;2024-03-23T12:30:34;10.90;99.90
39067;DHT22;24821;51.988;6.020;2024-03-23T12:33:00;10.70;99.90
39067;DHT22;24821;51.988;6.020;2024-03-23T12:35:25;10.40;99.90
39067;DHT22;24821;51.988;6.020;2024-03-23T12:37:51;10.30;99.90
39067;DHT22;24821;51.988;6.020;2024-03-23T12:40:16;10.20;99.90
39067;DHT22;24821;51.988;6.020;2024-03-23T12:42:42;10.30;99.90
39067;DHT22;24821;51.988;6.020;2024-03-23T12:45:07;10.40;99.90
39067;DHT22;24821;51.988;6.020;2024-03-23T12:47:33;10.50;99.90
39067;DHT22;24821;51.988;6.020;2024-03-23T12:49:58;10.60;99.90
39067;DHT22;24821;51.988;6.020;2024-03-23T12:52:24;10.70;99.90
39067;DHT22;24821;51.988;6.020;2024-03-23T12:54:56;10.80;99.90
39067;DHT22;24821;51.988;6.020;2024-03-23T12:57:22;10.90;99.90
39067;DHT22;24821;51.988;6.020;2024-03-23T12:59:48;11.10;99.90
39067;DHT22;24821;51.988;6.020;2024-03-23T13:02:16;11.20;99.90
39067;DHT22;24821;51.988;6.020;2024-03-23T13:04:42;11.00;99.90
39067;DHT22;24821;51.988;6.020;2024-03-23T13:07:07;10.80;99.90
39067;DHT22;24821;51.988;6.020;2024-03-23T13:09:33;10.60;99.90
39067;DHT22;24821;51.988;6.020;2024-03-23T13:11:58;10.50;99.90
39067;DHT22;24821;51.988;6.020;2024-03-23T13:14:24;10.50;99.90
39067;DHT22;24821;51.988;6.020;2024-03-23T13:16:49;10.60;99.90
39067;DHT22;24821;51.988;6.020;2024-03-23T13:19:15;10.80;99.90
39067;DHT22;24821;51.988;6.020;2024-03-23T13:21:40;10.80;99.30
39067;DHT22;24821;51.988;6.020;2024-03-23T13:24:06;10.70;98.40
39067;DHT22;24821;51.988;6.020;2024-03-23T13:26:31;10.70;97.90
39067;DHT22;24821;51.988;6.020;2024-03-23T13:28:57;10.60;97.80
39067;DHT22;24821;51.988;6.020;2024-03-23T13:31:22;10.60;98.30
39067;DHT22;24821;51.988;6.020;2024-03-23T13:33:48;10.60;98.20
39067;DHT22;24821;51.988;6.020;2024-03-23T13:36:13;10.60;98.60
39067;DHT22;24821;51.988;6.020;2024-03-23T13:38:39;10.50;98.90
39067;DHT22;24821;51.988;6.020;2024-03-23T13:41:04;10.40;99.00
39067;DHT22;24821;51.988;6.020;2024-03-23T13:43:32;10.40;99.80
39067;DHT22;24821;51.988;6.020;2024-03-23T13:45:57;10.30;99.90
39067;DHT22;24821;51.988;6.020;2024-03-23T13:48:24;10.30;99.90
39067;DHT22;24821;51.988;6.020;2024-03-23T13:51:02;10.30;99.90
39067;DHT22;24821;51.988;6.020;2024-03-23T13:53:28;10.30;99.90
39067;DHT22;24821;51.988;6.020;2024-03-23T13:55:53;10.40;99.90
39067;DHT22;24821;51.988;6.020;2024-03-23T13:58:19;10.50;99.90
39067;DHT22;24821;51.988;6.020;2024-03-23T14:00:44;10.50;99.30
39067;DHT22;24821;51.988;6.020;2024-03-23T14:03:10;10.50;99.50
39067;DHT22;24821;51.988;6.020;2024-03-23T14:05:36;10.40;99.40
39067;DHT22;24821;51.988;6.020;2024-03-23T14:08:04;10.40;99.40
39067;DHT22;24821;51.988;6.020;2024-03-23T14:10:30;10.30;98.80
39067;DHT22;24821;51.988;6.020;2024-03-23T14:12:55;10.10;99.10
39067;DHT22;24821;51.988;6.020;2024-03-23T14:15:21;9.90;99.90
39067;DHT22;24821;51.988;6.020;2024-03-23T14:17:46;9.70;99.90
39067;DHT22;24821;51.988;6.020;2024-03-23T14:20:12;9.50;99.90
39067;DHT22;24821;51.988;6.020;2024-03-23T14:22:38;9.40;99.90
39067;DHT22;24821;51.988;6.020;2024-03-23T14:25:06;9.40;99.90
39067;DHT22;24821;51.988;6.020;2024-03-23T14:27:32;9.40;99.90
39067;DHT22;24821;51.988;6.020;2024-03-23T14:29:57;9.50;99.90
39067;DHT22;24821;51.988;6.020;2024-03-23T14:32:23;9.70;99.90
39067;DHT22;24821;51.988;6.020;2024-03-23T14:34:48;9.90;99.90
39067;DHT22;24821;51.988;6.020;2024-03-23T14:37:14;10.10;99.90
39067;DHT22;24821;51.988;6.020;2024-03-23T14:39:41;10.10;99.90
39067;DHT22;24821;51.988;6.020;2024-03-23T14:42:07;10.00;99.90
39067;DHT22;24821;51.988;6.020;2024-03-23T14:44:33;10.00;99.90
39067;DHT22;24821;51.988;6.020;2024-03-23T14:46:59;9.90;99.90
39067;DHT22;24821;51.988;6.020;2024-03-23T14:49:24;9.80;99.90
39067;DHT22;24821;51.988;6.020;2024-03-23T14:51:51;9.50;99.90
39067;DHT22;24821;51.988;6.020;2024-03-23T14:54:16;9.20;99.90
39067;DHT22;24821;51.988;6.020;2024-03-23T14:56:42;8.90;99.90
39067;DHT22;24821;51.988;6.020;2024-03-23T14:59:07;8.80;99.90
39067;DHT22;24821;51.988;6.020;2024-03-23T15:01:33;8.90;99.90
39067;DHT22;24821;51.988;6.020;2024-03-23T15:03:59;8.90;99.90
39067;DHT22;24821;51.988;6.020;2024-03-23T15:06:24;9.00;99.90
39067;DHT22;24821;51.988;6.020;2024-03-23T15:08:50;9.00;99.90
39067;DHT22;24821;51.988;6.020;2024-03-23T15:11:15;9.00;99.90
39067;DHT22;24821;51.988;6.020;2024-03-23T15:13:44;9.00;99.90
39067;DHT22;24821;51.988;6.020;2024-03-23T15:16:09;8.90;99.90
39067;DHT22;24821;51.988;6.020;2024-03-23T15:18:35;9.00;99.90
39067;DHT22;24821;51.988;6.020;2024-03-23T15:21:01;8.90;99.90
39067;DHT22;24821;51.988;6.020;2024-03-23T15:23:27;8.90;99.90
39067;DHT22;24821;51.988;6.020;2024-03-23T15:25:56;9.00;99.90
39067;DHT22;24821;51.988;6.020;2024-03-23T15:28:22;9.20;99.90
39067;DHT22;24821;51.988;6.020;2024-03-23T15:30:48;9.30;99.90
39067;DHT22;24821;51.988;6.020;2024-03-23T15:33:14;9.40;99.90
39067;DHT22;24821;51.988;6.020;2024-03-23T15:35:39;9.50;99.90
39067;DHT22;24821;51.988;6.020;2024-03-23T15:38:05;9.60;99.90
39067;DHT22;24821;51.988;6.020;2024-03-23T15:40:30;9.70;99.90
39067;DHT22;24821;51.988;6.020;2024-03-23T15:42:55;9.60;99.90
39067;DHT22;24821;51.988;6.020;2024-03-23T15:45:21;9.60;99.90
39067;DHT22;24821;51.988;6.020;2024-03-23T15:47:47;9.70;99.90
39067;DHT22;24821;51.988;6.020;2024-03-23T15:50:12;9.80;99.90
39067;DHT22;24821;51.988;6.020;2024-03-23T15:52:38;10.00;99.90
39067;DHT22;24821;51.988;6.020;2024-03-23T15:55:03;10.10;99.90
39067;DHT22;24821;51.988;6.020;2024-03-23T15:57:34;10.20;99.90
39067;DHT22;24821;51.988;6.020;2024-03-23T16:00:00;10.20;99.90
39067;DHT22;24821;51.988;6.020;2024-03-23T16:02:26;10.10;99.90
39067;DHT22;24821;51.988;6.020;2024-03-23T16:04:53;10.10;99.90
39067;DHT22;24821;51.988;6.020;2024-03-23T16:07:18;10.00;99.90
39067;DHT22;24821;51.988;6.020;2024-03-23T16:09:44;10.00;99.90
39067;DHT22;24821;51.988;6.020;2024-03-23T16:12:09;9.80;99.90
39067;DHT22;24821;51.988;6.020;2024-03-23T16:14:35;9.80;99.90
39067;DHT22;24821;51.988;6.020;2024-03-23T16:17:00;9.70;99.90
39067;DHT22;24821;51.988;6.020;2024-03-23T16:19:26;9.60;99.90
39067;DHT22;24821;51.988;6.020;2024-03-23T16:21:51;9.60;99.80
39067;DHT22;24821;51.988;6.020;2024-03-23T16:24:16;9.50;99.90
39067;DHT22;24821;51.988;6.020;2024-03-23T16:26:42;9.50;99.90
39067;DHT22;24821;51.988;6.020;2024-03-23T16:29:10;9.40;99.90
39067;DHT22;24821;51.988;6.020;2024-03-23T16:31:36;9.40;99.90
39067;DHT22;24821;51.988;6.020;2024-03-23T16:34:01;9.30;99.90